Miass, Russia
Current Conditions -  °F | °C
As of 4:00 PM on Sunday 23 Nov 2014 (Local Time) from USCC Reporting Station
Few Clouds Few Clouds  
Wind Chill: -11°   Ceiling: Unl
Heat Index:   Visibility: 6mi
Dew Point: -6°   Wind: 16mph
Humidity: 56%   Direction: 10°N
Pressure: 30.15"   Gusts: NA
Location:  55°N, 60.09°E
Report Text: USCC 231000Z 01007MPS 9999 FEW033CB M14/M21 Q1021 27000060NOSIG RMK QFE746
Loading
Personal Weather Stations






























Interactive Weather Map New forecast layout! Learn more

10-Day Weather Forecast

Advertisements
Track Severe Weather on mobile